Time;durP1;ratioP1;P1;durP2;ratioP2;P2;SDS_P1;SDS_P2;PMS_P1;PMS_P2;Temp;Humidity;BMP_temperature;BMP_pressure;BME280_temperature;BME280_humidity;BME280_pressure;Samples;Min_cycle;Max_cycle;Signal;HPM_P1;HPM_P2
2021/12/19 00:00:28;;;;;;;15.18;4.07;;;;;;;7.66;71.03;102375.44;4114340;28;20525;-57
2021/12/19 00:03:08;;;;;;;8.77;3.38;;;;;;;7.62;70.92;102374.41;4115120;28;20086;-60
2021/12/19 00:09:55;;;;;;;8.82;3.63;;;;;;;7.69;70.55;102368.78;4126094;28;20569;-62
2021/12/19 00:11:59;;;;;;;6.13;3.20;;;;;;;7.60;71.18;102347.50;4108703;28;20051;-59
2021/12/19 00:14:03;;;;;;;18.52;3.42;;;;;;;7.67;70.87;102354.81;4114232;28;20046;-60
2021/12/19 00:16:06;;;;;;;8.60;3.05;;;;;;;7.63;71.03;102342.50;4113611;28;20035;-61
2021/12/19 00:18:09;;;;;;;11.05;3.33;;;;;;;7.64;71.38;102357.25;4114052;28;20051;-59
2021/12/19 00:20:12;;;;;;;10.88;3.15;;;;;;;7.73;71.18;102337.88;4114216;28;20078;-56
2021/12/19 00:22:35;;;;;;;9.55;3.40;;;;;;;7.71;70.89;102358.50;4129108;28;20459;-58
2021/12/19 00:24:38;;;;;;;7.80;2.97;;;;;;;7.63;71.18;102350.28;4125299;28;20042;-59
2021/12/19 00:26:43;;;;;;;9.18;3.25;;;;;;;7.63;71.38;102339.91;4115429;28;20047;-60
2021/12/19 00:28:48;;;;;;;8.45;3.15;;;;;;;7.58;71.58;102331.03;4116772;28;20077;-59
2021/12/19 00:30:51;;;;;;;8.90;4.28;;;;;;;7.67;71.27;102347.06;4099284;29;20051;-59
2021/12/19 00:32:54;;;;;;;10.20;4.05;;;;;;;7.61;71.06;102325.13;4115428;28;20050;-59
2021/12/19 00:34:57;;;;;;;9.27;3.63;;;;;;;7.61;71.70;102340.66;4116756;28;20122;-60
2021/12/19 00:37:00;;;;;;;9.30;3.90;;;;;;;7.66;71.02;102329.72;4117047;28;20086;-60
2021/12/19 00:39:04;;;;;;;9.18;4.53;;;;;;;7.61;71.37;102326.00;4116914;28;20039;-60
2021/12/19 00:41:09;;;;;;;8.02;4.32;;;;;;;7.68;71.15;102327.22;4116786;28;20038;-59
2021/12/19 00:43:23;;;;;;;8.30;4.32;;;;;;;7.63;71.81;102323.50;4117212;28;20108;-60
2021/12/19 00:45:30;;;;;;;11.07;4.50;;;;;;;7.60;71.67;102313.88;4104247;28;20058;-62
2021/12/19 00:47:33;;;;;;;11.23;4.18;;;;;;;7.66;71.54;102314.19;4115699;28;20042;-61
2021/12/19 00:49:36;;;;;;;8.63;4.43;;;;;;;7.63;71.51;102324.38;4116670;28;20054;-60
2021/12/19 00:51:40;;;;;;;6.60;3.55;;;;;;;7.60;71.70;102316.44;4104442;28;20444;-60
2021/12/19 00:53:45;;;;;;;7.95;4.15;;;;;;;7.61;71.31;102297.53;4117188;28;20047;-60
2021/12/19 00:55:48;;;;;;;9.60;4.30;;;;;;;7.62;71.20;102301.00;4118604;28;20054;-58
2021/12/19 00:57:52;;;;;;;10.60;4.82;;;;;;;7.61;72.12;102302.72;4114418;28;20061;-60
2021/12/19 00:59:56;;;;;;;9.60;5.03;;;;;;;7.62;71.40;102316.53;4116425;28;20042;-60
2021/12/19 01:01:59;;;;;;;13.40;5.00;;;;;;;7.58;71.99;102294.78;4118991;28;20330;-58
2021/12/19 01:04:03;;;;;;;11.73;5.28;;;;;;;7.53;72.53;102280.69;4116229;28;20046;-60
2021/12/19 01:06:07;;;;;;;8.27;4.63;;;;;;;7.55;72.00;102286.84;4116680;28;20073;-58
2021/12/19 01:08:12;;;;;;;10.82;5.80;;;;;;;7.58;71.67;102263.72;4186050;23;20045;-60
2021/12/19 01:10:16;;;;;;;8.02;5.47;;;;;;;7.58;71.90;102310.31;4180601;28;20033;-59
2021/12/19 01:12:20;;;;;;;11.07;6.03;;;;;;;7.53;72.18;102288.44;4181811;28;20444;-59
2021/12/19 01:14:23;;;;;;;11.85;6.15;;;;;;;7.55;71.52;102281.69;4181741;28;20075;-58
2021/12/19 01:16:27;;;;;;;12.77;5.70;;;;;;;7.52;71.76;102302.22;4181675;28;20422;-59
2021/12/19 01:18:31;;;;;;;11.00;5.32;;;;;;;7.49;71.97;102281.31;4181942;28;20041;-59
2021/12/19 01:20:36;;;;;;;9.02;5.13;;;;;;;7.48;71.46;102287.31;4181553;28;20393;-60
2021/12/19 01:22:39;;;;;;;9.93;5.95;;;;;;;7.43;71.64;102280.97;4182272;28;20045;-57
2021/12/19 01:24:43;;;;;;;10.90;5.38;;;;;;;7.46;71.79;102266.53;4181096;28;20045;-58
2021/12/19 01:26:46;;;;;;;12.00;6.07;;;;;;;7.41;71.86;102285.19;4181745;28;20041;-56
2021/12/19 01:28:49;;;;;;;14.63;6.45;;;;;;;7.43;71.52;102287.06;4183810;28;20044;-62
2021/12/19 01:30:52;;;;;;;11.05;6.05;;;;;;;7.46;71.42;102269.09;4182715;28;20047;-59
2021/12/19 01:32:56;;;;;;;9.60;5.40;;;;;;;7.34;71.85;102287.44;4181931;28;20118;-60
2021/12/19 01:35:00;;;;;;;6.68;5.07;;;;;;;7.41;71.40;102274.81;4163999;28;20511;-57
2021/12/19 01:37:03;;;;;;;9.75;4.82;;;;;;;7.38;71.44;102274.66;4163440;28;20049;-58
2021/12/19 01:39:06;;;;;;;11.60;5.13;;;;;;;7.37;71.60;102273.75;4180309;28;20033;-60
2021/12/19 01:41:09;;;;;;;9.95;4.28;;;;;;;7.34;70.81;102271.91;4181521;28;20045;-59
2021/12/19 01:43:12;;;;;;;6.80;4.10;;;;;;;7.32;71.36;102289.00;4164508;28;20049;-60
2021/12/19 01:45:22;;;;;;;7.32;4.13;;;;;;;7.29;71.37;102265.56;4195731;28;20523;-59
2021/12/19 01:47:25;;;;;;;8.48;4.20;;;;;;;7.31;71.32;102263.94;4181542;28;20412;-60
2021/12/19 01:49:29;;;;;;;5.90;3.70;;;;;;;7.32;70.99;102273.50;4179708;28;20052;-57
2021/12/19 01:51:32;;;;;;;7.20;4.18;;;;;;;7.36;71.17;102246.13;4181702;28;20048;-59
2021/12/19 01:53:35;;;;;;;5.22;3.05;;;;;;;7.37;70.79;102241.81;4181299;28;20051;-60
2021/12/19 01:55:40;;;;;;;7.88;4.05;;;;;;;7.28;70.73;102247.38;4181450;28;20473;-59
2021/12/19 01:57:43;;;;;;;7.82;3.63;;;;;;;7.22;71.21;102234.09;4181476;28;20064;-60
2021/12/19 01:59:46;;;;;;;9.25;4.20;;;;;;;7.25;70.79;102237.72;4180963;28;20110;-58
2021/12/19 02:01:52;;;;;;;6.18;3.92;;;;;;;7.31;71.31;102263.94;4181314;28;20045;-59
2021/12/19 02:03:55;;;;;;;8.00;3.83;;;;;;;7.28;71.08;102235.31;4181275;28;20378;-59
2021/12/19 02:06:01;;;;;;;7.95;3.55;;;;;;;7.23;71.95;102234.19;4181200;28;20041;-61
2021/12/19 02:08:05;;;;;;;7.20;4.10;;;;;;;7.31;71.58;102232.88;4163252;28;20077;-57
2021/12/19 02:10:09;;;;;;;11.32;4.32;;;;;;;7.26;72.16;102224.00;4174052;28;20040;-58
2021/12/19 02:12:13;;;;;;;6.95;3.78;;;;;;;7.33;71.74;102214.91;4180478;28;20052;-60
2021/12/19 02:14:16;;;;;;;6.72;3.65;;;;;;;7.26;72.28;102234.34;4180157;28;20045;-60
2021/12/19 02:16:20;;;;;;;7.55;4.50;;;;;;;7.24;72.68;102202.34;4180632;28;20045;-60
2021/12/19 02:18:24;;;;;;;7.20;4.53;;;;;;;7.24;72.95;102206.59;4180803;28;20037;-58
2021/12/19 02:20:32;;;;;;;11.60;5.80;;;;;;;7.30;72.67;102205.25;4162459;28;20064;-58
2021/12/19 02:22:35;;;;;;;7.60;4.60;;;;;;;7.31;72.48;102182.84;4183374;28;20510;-58
2021/12/19 02:24:38;;;;;;;9.05;4.93;;;;;;;7.25;73.09;102188.56;4180038;28;20040;-60
2021/12/19 02:26:43;;;;;;;11.27;5.07;;;;;;;7.22;73.01;102185.81;4180368;28;20124;-60
2021/12/19 02:28:46;;;;;;;8.80;4.88;;;;;;;7.24;72.94;102184.22;4180563;28;20037;-60
2021/12/19 02:30:50;;;;;;;8.02;4.47;;;;;;;7.23;72.51;102172.09;4179964;28;20049;-59
2021/12/19 02:32:54;;;;;;;9.43;4.30;;;;;;;7.20;72.81;102176.19;4178873;28;20045;-60
2021/12/19 02:35:00;;;;;;;7.00;4.07;;;;;;;7.16;72.71;102188.06;4179483;28;20514;-60
2021/12/19 02:37:12;;;;;;;9.98;4.22;;;;;;;7.15;73.01;102184.59;4180409;28;20043;-59
2021/12/19 02:39:35;;;;;;;8.27;5.00;;;;;;;7.10;72.84;102185.16;4180517;28;20041;-59
2021/12/19 02:48:51;;;;;;;4.95;3.53;;;;;;;7.05;72.21;102184.00;4182318;28;20091;-61
2021/12/19 02:50:54;;;;;;;6.47;3.42;;;;;;;7.07;71.98;102172.94;4184894;28;20075;-61
2021/12/19 02:52:59;;;;;;;8.25;3.55;;;;;;;7.01;72.20;102182.94;4182355;28;20068;-59
2021/12/19 02:55:03;;;;;;;;;;;;;;;6.99;72.09;102174.19;4172989;28;20045;-56
2021/12/19 02:57:07;;;;;;;8.60;3.53;;;;;;;6.97;71.91;102179.28;4180198;28;19921;-56
2021/12/19 02:59:10;;;;;;;6.88;3.50;;;;;;;6.95;72.38;102157.63;4179512;28;20049;-57
2021/12/19 03:01:16;;;;;;;8.75;4.22;;;;;;;6.96;71.73;102164.56;4181263;28;20040;-57
2021/12/19 03:03:19;;;;;;;6.57;3.47;;;;;;;6.93;72.44;102154.03;4181392;28;20069;-56
2021/12/19 03:05:24;;;;;;;6.25;3.97;;;;;;;6.96;71.67;102143.88;4181573;28;20041;-59
2021/12/19 03:07:29;;;;;;;6.90;4.03;;;;;;;6.98;71.62;102138.81;4180090;28;20045;-59
2021/12/19 03:09:52;;;;;;;7.70;3.83;;;;;;;6.92;72.22;102131.59;4179625;28;20513;-60
2021/12/19 03:12:07;;;;;;;7.13;3.88;;;;;;;6.96;72.05;102140.41;4180615;28;20049;-59
2021/12/19 03:18:51;;;;;;;10.32;4.07;;;;;;;6.81;72.33;102099.97;4180191;28;20060;-58
2021/12/19 03:20:55;;;;;;;8.15;4.60;;;;;;;6.79;72.55;102106.75;4181750;28;20045;-62
2021/12/19 03:22:59;;;;;;;7.43;4.53;;;;;;;6.83;72.11;102110.38;4183060;28;20409;-60
2021/12/19 03:25:03;;;;;;;7.97;4.50;;;;;;;6.81;72.36;102119.75;4180419;28;20079;-60
2021/12/19 03:27:10;;;;;;;;;;;;;;;6.79;72.83;102140.34;4220418;23;20449;-61
2021/12/19 03:29:13;;;;;;;10.32;3.80;;;;;;;6.78;72.48;102156.66;4147608;28;19945;-60
2021/12/19 03:31:16;;;;;;;10.60;4.55;;;;;;;6.88;72.31;102146.81;4185366;28;20048;-62
2021/12/19 03:33:20;;;;;;;10.68;5.50;;;;;;;6.95;72.09;102152.44;4167004;28;20045;-58
2021/12/19 03:35:24;;;;;;;8.53;4.20;;;;;;;6.93;72.38;102182.47;4165372;28;20407;-59
2021/12/19 03:37:27;;;;;;;10.85;4.63;;;;;;;6.89;72.61;102138.28;4164469;28;20042;-60
2021/12/19 03:39:44;;;;;;;7.28;4.07;;;;;;;6.96;72.09;102137.81;4155317;28;20026;-57
2021/12/19 03:41:50;;;;;;;10.75;4.13;;;;;;;6.94;72.26;102145.50;4139089;28;20588;-59
2021/12/19 03:43:53;;;;;;;10.18;3.50;;;;;;;6.95;72.42;102143.78;4135479;28;20050;-60
2021/12/19 03:45:56;;;;;;;7.10;3.72;;;;;;;6.95;72.73;102131.78;4157964;28;20124;-58
2021/12/19 03:47:59;;;;;;;7.43;4.55;;;;;;;6.94;72.53;102142.91;4158925;28;20472;-58
2021/12/19 03:50:04;;;;;;;5.65;3.63;;;;;;;6.88;72.88;102157.16;4146746;28;20096;-60
2021/12/19 03:52:07;;;;;;;10.65;4.50;;;;;;;6.89;72.75;102127.94;4155615;28;20049;-59
2021/12/19 03:54:10;;;;;;;11.32;4.10;;;;;;;6.94;72.49;102126.50;4161931;28;20132;-60
2021/12/19 03:56:13;;;;;;;11.10;4.05;;;;;;;7.03;72.06;102110.63;4145309;28;20504;-59
2021/12/19 03:58:18;;;;;;;7.45;3.75;;;;;;;6.94;72.35;102108.41;4161697;28;20045;-59
2021/12/19 04:00:24;;;;;;;9.27;3.55;;;;;;;6.95;72.74;102113.66;4162687;28;20034;-59
2021/12/19 04:02:29;;;;;;;9.80;4.30;;;;;;;6.99;73.22;102118.22;4149419;28;20407;-58
2021/12/19 04:04:36;;;;;;;13.65;4.60;;;;;;;7.05;72.29;102111.59;4152881;28;20407;-60
2021/12/19 04:06:39;;;;;;;10.98;4.28;;;;;;;7.03;72.61;102120.97;4152573;28;20310;-59
2021/12/19 04:08:42;;;;;;;11.07;4.32;;;;;;;7.02;72.95;102120.06;4159801;28;20124;-60
2021/12/19 04:10:46;;;;;;;6.85;3.67;;;;;;;7.07;72.50;102133.25;4156238;28;20048;-61
2021/12/19 04:12:49;;;;;;;11.00;4.25;;;;;;;7.04;72.16;102117.56;4164957;28;20116;-56
2021/12/19 04:14:53;;;;;;;7.20;3.78;;;;;;;7.08;72.68;102115.25;4152667;28;20096;-59
2021/12/19 04:16:56;;;;;;;9.90;3.60;;;;;;;7.04;72.67;102117.56;4155036;28;20042;-60
2021/12/19 04:18:59;;;;;;;9.18;4.47;;;;;;;7.04;72.56;102112.38;4166900;28;20038;-60
2021/12/19 04:21:02;;;;;;;8.57;3.60;;;;;;;7.07;72.38;102107.41;4165385;28;20399;-59
2021/12/19 04:23:05;;;;;;;8.60;4.43;;;;;;;7.05;72.88;102107.28;4154675;28;20092;-60
2021/12/19 04:25:10;;;;;;;6.38;3.20;;;;;;;6.98;72.65;102093.16;4159252;28;20041;-60
2021/12/19 04:27:13;;;;;;;8.88;3.92;;;;;;;7.05;73.07;102085.72;4164767;28;20540;-60
2021/12/19 04:29:16;;;;;;;10.60;3.50;;;;;;;7.04;73.18;102076.19;4164563;28;20083;-60
2021/12/19 04:31:21;;;;;;;5.93;3.40;;;;;;;7.06;73.07;102065.13;4158305;28;20498;-58
2021/12/19 04:33:25;;;;;;;7.72;4.05;;;;;;;7.05;72.63;102065.03;4170781;28;20459;-57
2021/12/19 04:35:31;;;;;;;11.27;3.55;;;;;;;7.10;72.63;102045.50;4143362;28;20050;-59
2021/12/19 04:38:02;;;;;;;8.85;4.22;;;;;;;7.05;72.85;102067.63;4158513;28;20491;-58
2021/12/19 04:40:10;;;;;;;9.32;3.80;;;;;;;7.03;72.65;102038.22;4164603;28;20045;-60
2021/12/19 04:43:07;;;;;;;8.00;3.50;;;;;;;7.05;72.47;102047.81;4150191;28;20450;-61
2021/12/19 04:52:21;;;;;;;10.55;3.60;;;;;;;7.07;72.99;102066.03;4165780;28;20049;-60
2021/12/19 04:54:34;;;;;;;11.02;4.35;;;;;;;7.12;72.74;102059.41;4165316;28;20045;-59
2021/12/19 04:56:46;;;;;;;7.07;3.20;;;;;;;7.10;72.29;102089.47;4165595;28;20045;-61
2021/12/19 05:01:24;;;;;;;7.63;3.28;;;;;;;7.10;72.80;102072.25;4167060;28;20053;-59
2021/12/19 05:03:39;;;;;;;27.58;4.10;;;;;;;7.04;72.65;102065.84;4166726;28;20045;-59
2021/12/19 05:06:00;;;;;;;8.25;3.78;;;;;;;7.10;72.42;102040.34;4166756;28;20540;-61
2021/12/19 05:15:24;;;;;;;7.20;3.90;;;;;;;7.14;72.68;102044.84;4105752;28;20051;-60
2021/12/19 05:17:29;;;;;;;13.07;3.70;;;;;;;7.15;72.68;102056.97;4106512;28;20105;-56
2021/12/19 05:19:44;;;;;;;11.40;3.80;;;;;;;7.12;72.62;102049.94;4164991;28;20095;-57
2021/12/19 05:21:52;;;;;;;12.88;4.03;;;;;;;7.17;72.32;102065.72;4164804;28;20041;-59
2021/12/19 05:24:20;;;;;;;10.35;3.83;;;;;;;7.21;72.06;102065.06;4148190;28;20050;-59
2021/12/19 05:26:23;;;;;;;8.93;2.97;;;;;;;7.19;72.66;102083.91;4165377;28;20095;-59
2021/12/19 05:28:26;;;;;;;10.45;3.38;;;;;;;7.16;72.73;102072.56;4164241;28;20041;-59
2021/12/19 05:30:29;;;;;;;12.40;3.50;;;;;;;7.19;72.20;102061.50;4164654;28;20084;-58
2021/12/19 05:32:32;;;;;;;8.63;3.95;;;;;;;7.24;72.03;102065.25;4165151;28;20045;-60
2021/12/19 05:34:36;;;;;;;11.05;4.07;;;;;;;7.17;72.25;102065.72;4147288;28;20070;-61
2021/12/19 05:45:11;;;;;;;12.18;5.18;;;;;;;7.20;71.85;102032.25;4125482;28;20136;-58
2021/12/19 05:46:36;;;;;;;9.23;4.38;;;;;;;7.21;71.97;102062.47;4180379;28;20057;-61
2021/12/19 05:48:39;;;;;;;8.35;4.82;;;;;;;7.18;71.80;102085.59;4181333;28;20052;-60
2021/12/19 05:50:42;;;;;;;11.55;4.22;;;;;;;7.16;72.09;102063.94;4181419;28;20041;-60
2021/12/19 05:52:46;;;;;;;12.85;4.93;;;;;;;7.19;71.83;102077.03;4181632;28;20072;-59
2021/12/19 05:54:51;;;;;;;10.70;4.95;;;;;;;7.20;71.61;102067.56;4181773;28;20110;-60
2021/12/19 05:56:54;;;;;;;12.23;5.75;;;;;;;7.23;71.60;102094.50;4180054;28;20456;-61
2021/12/19 05:58:57;;;;;;;5.45;3.70;;;;;;;7.18;71.89;102083.00;4167188;28;20041;-60
2021/12/19 06:01:00;;;;;;;15.93;5.30;;;;;;;7.18;72.05;102059.72;4160339;28;20050;-61
2021/12/19 06:03:04;;;;;;;10.43;4.50;;;;;;;7.24;71.63;102085.94;4181722;28;20053;-60
2021/12/19 06:05:08;;;;;;;11.32;5.40;;;;;;;7.25;71.42;102092.88;4177387;28;20040;-59
2021/12/19 06:07:11;;;;;;;12.77;5.68;;;;;;;7.25;71.35;102095.44;4180925;28;20041;-58
2021/12/19 06:09:15;;;;;;;14.50;5.18;;;;;;;7.24;71.26;102100.53;4180630;28;20041;-60
2021/12/19 06:11:19;;;;;;;10.70;4.97;;;;;;;7.29;71.12;102079.28;4176730;28;20068;-60
2021/12/19 06:13:22;;;;;;;14.98;5.65;;;;;;;7.26;71.29;102081.72;4148978;28;20049;-59
2021/12/19 06:15:25;;;;;;;9.55;4.70;;;;;;;7.25;71.53;102087.69;4167097;28;20403;-59
2021/12/19 06:17:28;;;;;;;13.82;5.00;;;;;;;7.27;70.94;102056.72;4164039;28;20045;-59
2021/12/19 06:19:36;;;;;;;11.93;4.57;;;;;;;7.24;71.24;102067.84;4179385;28;20037;-59
2021/12/19 06:21:39;;;;;;;13.10;4.30;;;;;;;7.25;71.20;102063.53;4158174;28;20045;-60
2021/12/19 06:23:42;;;;;;;11.00;4.47;;;;;;;7.19;71.87;102063.22;4165880;28;20054;-59
2021/12/19 06:25:46;;;;;;;14.32;4.05;;;;;;;7.27;70.99;102048.97;4170592;28;20115;-57
2021/12/19 06:27:51;;;;;;;10.57;3.60;;;;;;;7.26;71.49;102055.84;4173911;28;20037;-59
2021/12/19 06:29:54;;;;;;;8.70;3.83;;;;;;;7.19;71.40;102061.50;4180682;28;20102;-60
2021/12/19 06:31:58;;;;;;;12.73;4.05;;;;;;;7.16;71.22;102036.34;4163422;28;20049;-60
2021/12/19 06:34:01;;;;;;;6.78;3.60;;;;;;;7.08;71.89;102023.81;4181157;28;20102;-59
2021/12/19 06:36:05;;;;;;;13.30;3.50;;;;;;;7.16;71.69;102061.34;4180030;28;20401;-60
2021/12/19 06:38:09;;;;;;;9.07;3.40;;;;;;;7.08;72.10;102016.06;4180207;28;20044;-59
2021/12/19 06:40:15;;;;;;;17.65;4.40;;;;;;;7.09;72.07;102017.84;4180579;28;20295;-60
2021/12/19 06:42:18;;;;;;;13.20;4.18;;;;;;;7.08;72.56;102019.56;4180864;28;20098;-59
2021/12/19 06:44:22;;;;;;;8.27;3.42;;;;;;;7.12;72.50;101995.63;4180899;28;20098;-60
2021/12/19 06:46:25;;;;;;;10.40;3.50;;;;;;;7.10;72.70;101993.78;4180862;28;20102;-59
2021/12/19 06:48:28;;;;;;;9.40;4.03;;;;;;;7.13;72.44;102012.91;4180632;28;20473;-60
2021/12/19 06:50:31;;;;;;;15.20;4.25;;;;;;;7.06;72.90;102033.22;4179520;28;20029;-58
2021/12/19 06:52:35;;;;;;;9.02;3.28;;;;;;;7.16;72.25;101996.69;4163057;28;20045;-60
2021/12/19 06:54:37;;;;;;;12.02;4.15;;;;;;;7.11;72.25;102011.97;4177140;28;20509;-59
2021/12/19 06:56:41;;;;;;;14.93;4.18;;;;;;;7.12;72.57;102005.97;4180952;28;20083;-57
2021/12/19 06:58:44;;;;;;;8.07;4.65;;;;;;;7.14;73.02;102016.38;4178782;28;20045;-60
2021/12/19 07:00:48;;;;;;;11.68;4.13;;;;;;;7.16;72.28;102033.78;4180008;28;20079;-59
2021/12/19 07:02:53;;;;;;;11.30;3.70;;;;;;;7.09;72.62;102026.50;4163366;28;20053;-60
2021/12/19 07:04:57;;;;;;;8.93;3.70;;;;;;;7.12;73.01;102021.47;4180058;28;20045;-59
2021/12/19 07:07:00;;;;;;;6.18;3.28;;;;;;;7.09;73.19;102030.78;4166708;28;20048;-60
2021/12/19 07:09:03;;;;;;;9.98;3.92;;;;;;;7.11;72.83;102008.47;4180821;28;20047;-60
2021/12/19 07:11:06;;;;;;;10.20;3.50;;;;;;;7.06;73.08;102017.69;4180187;28;20065;-60
2021/12/19 07:13:09;;;;;;;13.52;4.50;;;;;;;6.98;73.35;101994.03;4179820;28;20048;-59
2021/12/19 07:15:14;;;;;;;13.20;5.97;;;;;;;7.08;73.72;101988.53;4179854;28;20056;-59
2021/12/19 07:17:18;;;;;;;12.10;3.42;;;;;;;7.00;73.49;101976.88;4161818;28;20045;-59
2021/12/19 07:19:21;;;;;;;9.07;3.42;;;;;;;7.10;73.00;101998.94;4179912;28;20103;-62
2021/12/19 07:21:25;;;;;;;13.02;4.47;;;;;;;7.19;74.41;102003.72;4179041;28;20041;-56
2021/12/19 07:23:28;;;;;;;11.10;3.30;;;;;;;7.36;73.84;101979.63;4178899;28;20494;-50
2021/12/19 07:25:31;;;;;;;6.75;2.67;;;;;;;7.50;73.46;101980.31;4167736;28;20091;-51
2021/12/19 07:27:35;;;;;;;9.93;3.42;;;;;;;7.53;72.73;101989.94;4162830;28;20073;-53
2021/12/19 07:29:38;;;;;;;8.68;3.20;;;;;;;7.54;72.10;101976.22;4179512;28;20060;-59
2021/12/19 07:31:41;;;;;;;7.22;3.22;;;;;;;7.39;72.18;101997.91;4179863;28;20041;-59
2021/12/19 07:33:46;;;;;;;7.45;3.45;;;;;;;7.33;72.83;101982.94;4176513;28;20148;-58
2021/12/19 07:35:50;;;;;;;8.13;3.55;;;;;;;7.23;73.27;101975.50;4154784;28;20080;-59
2021/12/19 07:37:56;;;;;;;8.15;3.30;;;;;;;7.25;72.94;101984.22;4176339;28;20641;-59
2021/12/19 07:40:10;;;;;;;10.90;3.90;;;;;;;7.22;73.45;101954.75;4179544;28;20037;-57
2021/12/19 07:42:13;;;;;;;16.35;4.00;;;;;;;7.22;72.89;101971.13;4163007;28;20503;-60
2021/12/19 07:44:16;;;;;;;16.13;5.18;;;;;;;7.22;72.97;101958.19;4176877;28;20040;-59
2021/12/19 07:46:19;;;;;;;8.88;4.22;;;;;;;7.23;73.01;101957.41;4175781;28;20068;-60
2021/12/19 07:48:23;;;;;;;15.25;4.68;;;;;;;7.19;73.07;101955.47;4239174;23;20914;-59
2021/12/19 07:50:30;;;;;;;14.50;4.30;;;;;;;7.17;73.13;101964.84;4162766;28;20038;-56
2021/12/19 07:52:33;;;;;;;8.30;3.90;;;;;;;7.18;73.19;101961.44;4163065;28;20132;-57
2021/12/19 07:54:36;;;;;;;5.95;3.85;;;;;;;7.16;73.36;101989.81;4162479;28;20045;-57
2021/12/19 07:56:39;;;;;;;10.80;3.90;;;;;;;7.25;72.25;101984.22;4163106;28;20049;-58
2021/12/19 07:58:42;;;;;;;9.43;4.40;;;;;;;7.24;72.65;101966.94;4158806;28;20562;-59
2021/12/19 08:01:03;;;;;;;11.25;3.80;;;;;;;7.29;72.04;101952.53;4154309;28;20045;-58
2021/12/19 08:03:06;;;;;;;10.15;4.22;;;;;;;7.27;72.37;101959.34;4149643;28;20042;-58
2021/12/19 08:05:10;;;;;;;16.38;4.32;;;;;;;7.34;71.83;101952.78;4147260;28;20038;-58
2021/12/19 08:07:16;;;;;;;9.05;4.00;;;;;;;7.41;71.15;101948.81;4146512;28;20037;-66
2021/12/19 08:09:35;;;;;;;11.15;3.80;;;;;;;7.34;71.69;101953.69;4150072;28;20050;-62
2021/12/19 08:11:40;;;;;;;12.27;4.43;;;;;;;7.36;72.03;101960.59;4164536;28;20069;-64
2021/12/19 08:13:43;;;;;;;10.15;3.50;;;;;;;7.41;71.59;101959.16;4139469;28;20117;-60
2021/12/19 08:15:46;;;;;;;13.55;4.10;;;;;;;7.38;71.41;101931.44;4153006;28;20041;-60
2021/12/19 08:17:50;;;;;;;9.10;4.00;;;;;;;7.38;72.03;101946.94;4159691;28;20045;-60
2021/12/19 08:19:53;;;;;;;12.00;4.03;;;;;;;7.42;71.94;101937.66;4159540;28;20052;-59
2021/12/19 08:21:56;;;;;;;8.15;3.72;;;;;;;7.39;72.26;101940.06;4154834;28;20042;-60
2021/12/19 08:24:02;;;;;;;11.90;4.13;;;;;;;7.33;71.88;101977.75;4155334;28;20498;-61
2021/12/19 08:26:05;;;;;;;8.20;3.72;;;;;;;7.34;72.30;101937.25;4158734;28;20049;-61
2021/12/19 08:28:08;;;;;;;10.25;3.78;;;;;;;7.43;72.07;101936.84;4157988;28;20041;-62
2021/12/19 08:30:13;;;;;;;7.47;3.85;;;;;;;7.45;71.90;101945.56;4163118;28;20046;-61
2021/12/19 08:32:16;;;;;;;;;;;;;;;7.37;71.78;101941.69;4166397;28;20044;-64
2021/12/19 08:34:19;;;;;;;14.20;4.18;;;;;;;7.40;71.93;101949.63;4154403;28;19924;-62
2021/12/19 08:36:22;;;;;;;13.43;5.15;;;;;;;7.47;72.01;101933.59;4157762;28;20275;-59
2021/12/19 08:38:25;;;;;;;10.48;3.80;;;;;;;7.43;71.23;101922.22;4165107;28;20052;-59
2021/12/19 08:40:32;;;;;;;11.50;3.75;;;;;;;7.46;71.08;101921.47;4169379;28;20037;-59
2021/12/19 08:42:35;;;;;;;10.90;3.58;;;;;;;7.50;71.45;101924.31;4154446;28;20430;-60
2021/12/19 08:44:39;;;;;;;15.27;3.95;;;;;;;7.53;71.14;101930.44;4158465;28;20418;-59
2021/12/19 08:46:45;;;;;;;9.63;3.85;;;;;;;7.53;71.27;101918.38;4159107;28;20059;-59
2021/12/19 08:48:48;;;;;;;11.73;3.65;;;;;;;7.55;70.61;101932.28;4162658;28;20581;-60
2021/12/19 08:50:52;;;;;;;9.63;3.15;;;;;;;7.58;69.94;101932.44;4153321;28;20076;-60
2021/12/19 08:52:55;;;;;;;9.05;2.88;;;;;;;7.52;69.86;101924.38;4172255;28;20033;-62
2021/12/19 08:54:59;;;;;;;4.45;2.08;;;;;;;7.58;68.98;101913.41;4172153;28;20041;-62
2021/12/19 08:57:04;;;;;;;6.57;2.08;;;;;;;7.60;68.85;101961.00;4181353;28;20571;-61
2021/12/19 08:59:07;;;;;;;6.03;1.98;;;;;;;7.55;68.83;101947.81;4170350;28;20404;-62
2021/12/19 09:01:10;;;;;;;5.20;2.28;;;;;;;7.62;69.34;101923.13;4166649;28;20029;-62
2021/12/19 09:03:14;;;;;;;4.40;1.60;;;;;;;7.62;68.90;101918.84;4173241;28;20033;-63
2021/12/19 09:05:18;;;;;;;6.72;2.05;;;;;;;7.71;68.55;101920.09;4166734;28;20045;-60
2021/12/19 09:07:21;;;;;;;5.55;2.10;;;;;;;7.74;69.00;101918.56;4171144;28;20052;-60
2021/12/19 09:09:24;;;;;;;8.38;2.45;;;;;;;7.80;68.41;101933.50;4167240;28;20048;-60
2021/12/19 09:11:27;;;;;;;4.80;1.65;;;;;;;7.72;68.36;101916.72;4169400;28;20037;-59
2021/12/19 09:13:33;;;;;;;3.28;1.38;;;;;;;7.77;68.23;101925.56;4172469;28;20037;-59
2021/12/19 09:15:36;;;;;;;11.30;1.60;;;;;;;7.74;68.19;101900.44;4162601;28;20041;-61
2021/12/19 09:17:39;;;;;;;4.25;1.52;;;;;;;7.68;68.26;101928.59;4168246;28;20055;-58
2021/12/19 09:19:43;;;;;;;3.85;1.23;;;;;;;7.66;69.04;101931.09;4162512;28;20057;-61
2021/12/19 09:21:46;;;;;;;4.65;1.10;;;;;;;7.69;69.39;101896.72;4150964;28;20045;-59
2021/12/19 09:23:49;;;;;;;4.15;1.50;;;;;;;7.68;69.35;101970.91;4167690;28;20049;-58
2021/12/19 09:25:52;;;;;;;3.75;1.50;;;;;;;7.73;69.49;101900.38;4163262;28;20041;-59
2021/12/19 09:27:55;;;;;;;5.75;1.90;;;;;;;7.69;70.01;101928.69;4157919;28;20037;-59
2021/12/19 09:29:59;;;;;;;8.65;2.33;;;;;;;7.63;69.96;101899.91;4161361;28;20073;-58
2021/12/19 09:32:03;;;;;;;8.02;1.95;;;;;;;7.61;69.82;101870.47;4144199;28;20458;-57
2021/12/19 09:34:07;;;;;;;4.93;1.67;;;;;;;7.61;69.65;101911.88;4149520;28;20450;-63
2021/12/19 09:36:10;;;;;;;4.65;1.70;;;;;;;7.57;70.36;101888.38;4160476;28;20506;-60
2021/12/19 09:38:14;;;;;;;7.43;1.88;;;;;;;7.58;70.83;101880.69;4164663;28;20449;-59
2021/12/19 09:40:21;;;;;;;6.88;2.95;;;;;;;7.56;70.92;101895.22;4163189;28;20041;-59
2021/12/19 09:42:34;;;;;;;6.82;2.40;;;;;;;7.65;70.35;101890.53;4163354;28;20034;-57
2021/12/19 09:44:39;;;;;;;5.78;2.85;;;;;;;7.66;70.56;101902.63;4154496;28;20402;-59
2021/12/19 09:46:46;;;;;;;4.15;1.90;;;;;;;7.64;70.16;101875.81;4164788;28;20059;-61
2021/12/19 09:48:50;;;;;;;4.00;1.90;;;;;;;7.74;69.69;101886.59;4163249;28;20147;-56
2021/12/19 09:50:53;;;;;;;4.90;1.63;;;;;;;7.74;69.70;101889.19;4151617;28;20590;-60
2021/12/19 09:52:57;;;;;;;3.73;1.80;;;;;;;7.69;70.08;101882.09;4162123;28;20037;-60
2021/12/19 10:00:53;;;;;;;5.65;1.70;;;;;;;7.51;70.92;101853.59;4195732;28;20435;-87
2021/12/19 10:03:17;;;;;;;12.32;2.35;;;;;;;7.48;71.40;101853.47;4178294;28;20126;-88
2021/12/19 10:05:37;;;;;;;5.72;1.60;;;;;;;7.56;71.80;101851.22;4177804;28;20048;-88
2021/12/19 10:07:47;;;;;;;4.00;1.60;;;;;;;7.57;72.31;101872.84;4191685;28;20530;-90
2021/12/19 10:10:00;;;;;;;6.65;1.75;;;;;;;7.47;72.14;101840.44;4168049;28;20064;-86
2021/12/19 10:12:24;;;;;;;5.32;3.33;;;;;;;7.50;72.31;101876.81;4183465;28;20057;-91
2021/12/19 10:14:31;;;;;;;3.58;1.38;;;;;;;7.31;72.97;101834.50;4185272;28;20033;-88
2021/12/19 10:16:35;;;;;;;2.78;1.17;;;;;;;7.45;72.51;101868.84;4185662;28;20041;-92
2021/12/19 10:18:52;;;;;;;2.58;1.10;;;;;;;7.50;72.51;101864.78;4185559;28;20025;-91
2021/12/19 10:20:59;;;;;;;2.03;0.90;;;;;;;7.41;72.33;101835.84;4185299;28;20117;-89
2021/12/19 10:23:10;;;;;;;3.58;0.95;;;;;;;7.50;72.44;101840.59;4182101;28;20045;-86
2021/12/19 10:25:22;;;;;;;1.90;1.10;;;;;;;7.48;72.78;101811.19;4161394;28;20045;-88
2021/12/19 10:27:38;;;;;;;2.22;0.98;;;;;;;7.42;73.67;101818.66;4172890;28;20045;-87
2021/12/19 10:29:45;;;;;;;3.95;1.23;;;;;;;7.32;74.52;101813.00;4174474;28;20057;-89
2021/12/19 10:32:04;;;;;;;2.38;1.00;;;;;;;7.31;73.61;101800.00;4173468;28;20113;-88
2021/12/19 10:34:25;;;;;;;1.73;0.88;;;;;;;7.16;74.39;101777.72;4173115;28;20072;-88
2021/12/19 10:36:29;;;;;;;1.45;0.90;;;;;;;7.24;74.72;101784.97;4173460;28;20140;-89